createdAt,value
2016-11-26T00:00:34.602Z,12.22
2016-11-26T00:01:34.345Z,12.27
2016-11-26T00:02:34.635Z,12.24
2016-11-26T00:03:34.344Z,12.29
2016-11-26T00:04:34.422Z,12.28
2016-11-26T00:05:34.389Z,12.25
2016-11-26T00:06:35.023Z,12.28
2016-11-26T00:07:34.733Z,12.2
2016-11-26T00:08:34.812Z,12.1
2016-11-26T00:09:34.800Z,12.07
2016-11-26T00:10:34.783Z,12.12
2016-11-26T00:11:34.853Z,12.1
2016-11-26T00:12:34.504Z,12.15
2016-11-26T00:13:34.841Z,12.06
2016-11-26T00:14:34.862Z,11.95
2016-11-26T00:15:34.582Z,12.02
2016-11-26T00:16:35.008Z,12.06
2016-11-26T00:17:34.920Z,12.02
2016-11-26T00:18:34.957Z,11.91
2016-11-26T00:19:35.268Z,11.97
2016-11-26T00:20:34.971Z,12.02
2016-11-26T00:21:34.675Z,12.03
2016-11-26T00:22:35.008Z,12.04
2016-11-26T00:23:35.239Z,12.06
2016-11-26T00:24:34.733Z,11.84
2016-11-26T00:25:35.062Z,11.97
2016-11-26T00:26:35.170Z,11.99
2016-11-26T00:27:35.101Z,11.99
2016-11-26T00:28:34.807Z,12.02
2016-11-26T00:29:34.825Z,11.88
2016-11-26T00:30:35.168Z,12.03
2016-11-26T00:31:34.974Z,11.99
2016-11-26T00:32:35.218Z,12
2016-11-26T00:33:34.957Z,11.95
2016-11-26T00:34:35.230Z,11.86
2016-11-26T00:35:35.245Z,11.78
2016-11-26T00:37:35.325Z,11.81
2016-11-26T00:38:35.301Z,11.88
2016-11-26T00:39:35.008Z,11.8
2016-11-26T00:40:35.339Z,11.77
2016-11-26T00:41:35.041Z,11.81
2016-11-26T00:42:35.061Z,11.84
2016-11-26T00:43:35.397Z,11.87
2016-11-26T00:44:35.731Z,11.88
2016-11-26T00:45:35.114Z,11.95
2016-11-26T00:46:35.459Z,11.99
2016-11-26T00:47:35.150Z,11.99
2016-11-26T00:48:35.486Z,12.12
2016-11-26T00:49:35.193Z,11.97
2016-11-26T00:50:35.215Z,12.09
2016-11-26T00:51:35.857Z,12.09
2016-11-26T00:52:35.270Z,12.03
2016-11-26T00:53:35.582Z,12.12
2016-11-26T00:54:35.284Z,11.99
2016-11-26T00:55:35.614Z,11.9
2016-11-26T00:56:35.316Z,11.99
2016-11-26T00:57:35.336Z,11.97
2016-11-26T00:58:35.672Z,12.03
2016-11-26T00:59:35.372Z,12.02
2016-11-26T01:00:35.705Z,11.83
2016-11-26T01:01:35.406Z,11.87
2016-11-26T01:02:35.631Z,11.87
2016-11-26T01:03:35.446Z,11.88
2016-11-26T01:04:35.791Z,11.84
2016-11-26T01:05:35.489Z,11.87
2016-11-26T01:06:35.500Z,11.84
2016-11-26T01:07:35.835Z,11.81
2016-11-26T01:08:35.864Z,11.78
2016-11-26T01:09:35.557Z,11.73
2016-11-26T01:10:35.890Z,11.63
2016-11-26T01:11:35.602Z,11.72
2016-11-26T01:12:35.929Z,11.57
2016-11-26T01:13:35.948Z,11.6
2016-11-26T01:14:35.965Z,11.65
2016-11-26T01:15:35.984Z,11.69
2016-11-26T01:16:35.999Z,11.73
2016-11-26T01:17:35.701Z,11.69
2016-11-26T01:18:36.040Z,11.73
2016-11-26T01:19:36.083Z,11.78
2016-11-26T01:20:36.084Z,11.69
2016-11-26T01:21:36.090Z,11.7
2016-11-26T01:22:36.107Z,11.77
2016-11-26T01:23:36.445Z,11.81
2016-11-26T01:24:36.147Z,11.8
2016-11-26T01:25:36.163Z,11.62
2016-11-26T01:26:36.520Z,11.68
2016-11-26T01:27:36.202Z,11.7
2016-11-26T01:28:35.908Z,11.8
2016-11-26T01:29:36.556Z,11.81
2016-11-26T01:30:36.258Z,11.87
2016-11-26T01:31:36.599Z,11.87
2016-11-26T01:32:35.972Z,11.86
2016-11-26T01:33:36.312Z,11.91
2016-11-26T01:34:36.327Z,11.8
2016-11-26T01:35:36.052Z,11.81
2016-11-26T01:36:36.703Z,11.8
2016-11-26T01:37:36.381Z,11.83
2016-11-26T01:38:36.400Z,11.83
2016-11-26T01:39:36.426Z,11.78
2016-11-26T01:40:36.445Z,11.9
2016-11-26T01:41:36.480Z,11.81
2016-11-26T01:42:36.492Z,11.78
2016-11-26T01:43:36.818Z,11.72
2016-11-26T01:44:36.826Z,11.72
2016-11-26T01:45:36.217Z,11.75
2016-11-26T01:46:36.614Z,11.77
2016-11-26T01:47:36.258Z,11.75
2016-11-26T01:48:36.586Z,11.77
2016-11-26T01:49:36.296Z,11.72
2016-11-26T01:50:36.626Z,11.75
2016-11-26T01:51:36.761Z,11.8
2016-11-26T01:52:36.363Z,11.77
2016-11-26T01:53:36.371Z,11.65
2016-11-26T01:54:36.751Z,11.48
2016-11-26T01:55:36.397Z,11.41
2016-11-26T01:56:37.083Z,11.48
2016-11-26T01:57:36.754Z,11.35
2016-11-26T01:58:36.767Z,11.44
2016-11-26T01:59:36.466Z,11.59
2016-11-26T02:00:36.486Z,11.55
2016-11-26T02:01:36.506Z,11.47
2016-11-26T02:02:36.883Z,11.54
2016-11-26T02:03:36.858Z,11.35
2016-11-26T02:04:36.881Z,11.25
2016-11-26T02:05:36.899Z,11.19
2016-11-26T02:06:36.916Z,11.07
2016-11-26T02:07:36.939Z,11.04
2016-11-26T02:08:36.953Z,11.12
2016-11-26T02:09:37.310Z,11.32
2016-11-26T02:10:36.672Z,11.26
2016-11-26T02:11:36.687Z,11.15
2016-11-26T02:12:36.705Z,11.04
2016-11-26T02:13:37.041Z,11.05
2016-11-26T02:14:37.067Z,11.07
2016-11-26T02:15:36.763Z,11.1
2016-11-26T02:16:37.410Z,11.22
2016-11-26T02:17:36.795Z,11.29
2016-11-26T02:18:37.455Z,11.14
2016-11-26T02:19:37.149Z,11.07
2016-11-26T02:20:36.895Z,10.97
2016-11-26T02:21:36.925Z,10.96
2016-11-26T02:22:36.886Z,10.9
2016-11-26T02:23:37.229Z,10.97
2016-11-26T02:24:36.947Z,10.92
2016-11-26T02:25:37.983Z,10.94
2016-11-26T02:26:37.553Z,10.9
2016-11-26T02:27:37.506Z,10.94
2016-11-26T02:28:37.687Z,10.96
2016-11-26T02:29:38.039Z,10.92
2016-11-26T02:30:37.039Z,10.99
2016-11-26T02:31:37.051Z,11.1
2016-11-26T02:32:37.734Z,11.07
2016-11-26T02:33:37.736Z,11.15
2016-11-26T02:34:37.423Z,11.1
2016-11-26T02:35:37.121Z,11.25
2016-11-26T02:36:37.154Z,11.27
2016-11-26T02:37:37.483Z,11.26
2016-11-26T02:38:37.179Z,11.05
2016-11-26T02:39:37.822Z,11.1
2016-11-26T02:40:37.212Z,10.96
2016-11-26T02:41:37.574Z,10.94
2016-11-26T02:42:37.982Z,10.93
2016-11-26T02:43:37.691Z,10.99
2016-11-26T02:44:37.448Z,11.07
2016-11-26T02:45:37.858Z,11.14
2016-11-26T02:46:37.385Z,11.29
2016-11-26T02:47:38.168Z,11.32
2016-11-26T02:48:37.710Z,11.3
2016-11-26T02:49:38.045Z,11.23
2016-11-26T02:50:38.428Z,11.36
2016-11-26T02:51:38.086Z,11.41
2016-11-26T02:52:38.095Z,11.43
2016-11-26T02:53:37.566Z,11.44
2016-11-26T02:54:38.109Z,11.35
2016-11-26T02:55:38.480Z,11.36
2016-11-26T02:56:37.951Z,11.37
2016-11-26T02:57:38.008Z,11.41
2016-11-26T02:58:37.701Z,11.48
2016-11-26T02:59:38.142Z,11.51
2016-11-26T03:00:38.382Z,11.47
2016-11-26T03:01:38.392Z,11.47
2016-11-26T03:02:38.235Z,11.52
2016-11-26T03:03:37.955Z,11.48
2016-11-26T03:04:37.967Z,11.47
2016-11-26T03:05:37.975Z,11.51
2016-11-26T03:06:38.314Z,11.37
2016-11-26T03:07:37.695Z,11.4
2016-11-26T03:08:38.031Z,11.37
2016-11-26T03:09:38.051Z,11.4
2016-11-26T03:10:38.068Z,11.43
2016-11-26T03:11:38.083Z,11.41
2016-11-26T03:12:38.100Z,11.44
2016-11-26T03:13:37.821Z,11.48
2016-11-26T03:14:38.138Z,11.47
2016-11-26T03:15:38.539Z,11.41
2016-11-26T03:16:37.862Z,11.37
2016-11-26T03:17:38.194Z,11.27
2016-11-26T03:18:37.896Z,11.14
2016-11-26T03:19:38.246Z,11.17
2016-11-26T03:20:37.943Z,11.3
2016-11-26T03:21:38.269Z,11.32
2016-11-26T03:22:38.281Z,11.23
2016-11-26T03:23:38.302Z,11.29
2016-11-26T03:24:38.320Z,11.26
2016-11-26T03:25:38.024Z,11.14
2016-11-26T03:26:38.040Z,11.25
2016-11-26T03:27:38.390Z,11.26
2016-11-26T03:28:38.704Z,11.22
2016-11-26T03:29:38.408Z,11.32
2016-11-26T03:30:38.742Z,11.18
2016-11-26T03:31:38.447Z,11.43
2016-11-26T03:32:38.782Z,11.36
2016-11-26T03:33:38.796Z,11.17
2016-11-26T03:34:38.183Z,11.1
2016-11-26T03:35:38.518Z,11.08
2016-11-26T03:36:38.854Z,10.97
2016-11-26T03:37:38.552Z,10.94
2016-11-26T03:38:38.576Z,10.82
2016-11-26T03:39:38.275Z,10.89
2016-11-26T03:40:38.607Z,10.89
2016-11-26T03:41:38.624Z,10.84
2016-11-26T03:42:38.959Z,10.79
2016-11-26T03:43:38.665Z,10.86
2016-11-26T03:44:38.676Z,10.86
2016-11-26T03:45:38.384Z,10.76
2016-11-26T03:46:38.402Z,10.74
2016-11-26T03:47:38.416Z,10.71
2016-11-26T03:48:38.439Z,10.71
2016-11-26T03:49:38.776Z,10.86
2016-11-26T03:50:39.100Z,10.89
2016-11-26T03:52:39.136Z,10.78
2016-11-26T03:53:38.844Z,10.82
2016-11-26T03:54:38.857Z,10.79
2016-11-26T03:55:38.561Z,10.86
2016-11-26T03:56:38.579Z,10.81
2016-11-26T03:57:38.911Z,10.89
2016-11-26T03:58:38.930Z,10.92
2016-11-26T03:59:39.273Z,10.87
2016-11-26T04:00:38.653Z,10.72
2016-11-26T04:01:38.983Z,10.72
2016-11-26T04:02:39.004Z,10.61
2016-11-26T04:03:39.025Z,10.71
2016-11-26T04:04:39.036Z,10.74
2016-11-26T04:05:39.054Z,10.68
2016-11-26T04:06:38.756Z,10.57
2016-11-26T04:07:39.097Z,10.61
2016-11-26T04:08:38.803Z,10.67
2016-11-26T04:09:38.808Z,10.71
2016-11-26T04:10:38.831Z,10.68
2016-11-26T04:11:39.481Z,10.61
2016-11-26T04:12:39.500Z,10.74
2016-11-26T04:13:39.513Z,10.9
2016-11-26T04:14:38.897Z,10.9
2016-11-26T04:15:38.926Z,10.93
2016-11-26T04:16:38.933Z,11.11
2016-11-26T04:17:38.950Z,11.04
2016-11-26T04:18:39.303Z,11.05
2016-11-26T04:19:39.303Z,11.04
2016-11-26T04:20:39.319Z,11.05
2016-11-26T04:21:39.654Z,11.15
2016-11-26T04:22:39.045Z,11.14
2016-11-26T04:23:39.691Z,11.1
2016-11-26T04:24:39.105Z,11.19
2016-11-26T04:25:39.110Z,11.26
2016-11-26T04:26:39.123Z,11.27
2016-11-26T04:27:39.137Z,11.22
2016-11-26T04:28:39.149Z,11.32
2016-11-26T04:29:39.168Z,11.29
2016-11-26T04:30:39.502Z,11.26
2016-11-26T04:31:39.836Z,11.36
2016-11-26T04:32:39.537Z,11.32
2016-11-26T04:33:39.235Z,11.36
2016-11-26T04:34:39.256Z,11.37
2016-11-26T04:35:39.593Z,11.37
2016-11-26T04:36:39.291Z,11.41
2016-11-26T04:37:39.621Z,11.37
2016-11-26T04:38:39.334Z,11.33
2016-11-26T04:39:39.343Z,11.35
2016-11-26T04:40:39.995Z,11.37
2016-11-26T04:41:40.009Z,11.35
2016-11-26T04:42:39.716Z,11.37
2016-11-26T04:43:39.734Z,11.35
2016-11-26T04:44:39.753Z,11.35
2016-11-26T04:45:39.769Z,11.37
2016-11-26T04:46:39.469Z,11.44
2016-11-26T04:47:40.125Z,11.37
2016-11-26T04:48:39.823Z,11.33
2016-11-26T04:49:39.841Z,11.25
2016-11-26T04:50:39.862Z,11.37
2016-11-26T04:51:40.192Z,11.44
2016-11-26T04:52:39.896Z,11.33
2016-11-26T04:53:40.228Z,11.35
2016-11-26T04:54:39.614Z,11.48
2016-11-26T04:55:39.949Z,11.44
2016-11-26T04:56:39.647Z,11.47
2016-11-26T04:57:39.988Z,11.44
2016-11-26T04:58:40.004Z,11.43
2016-11-26T04:59:40.335Z,11.37
2016-11-26T05:00:40.036Z,11.4
2016-11-26T05:01:40.062Z,11.44
2016-11-26T05:02:40.077Z,11.35
2016-11-26T05:03:40.100Z,11.35
2016-11-26T05:04:40.116Z,11.35
2016-11-26T05:05:39.812Z,11.37
2016-11-26T05:06:40.150Z,11.41
2016-11-26T05:07:40.479Z,11.37
2016-11-26T05:08:40.185Z,11.37
2016-11-26T05:09:40.203Z,11.33
2016-11-26T05:10:39.906Z,11.43
2016-11-26T05:11:40.234Z,11.37
2016-11-26T05:12:39.937Z,11.51
2016-11-26T05:13:40.278Z,11.45
2016-11-26T05:14:39.979Z,11.41
2016-11-26T05:15:40.309Z,11.41
2016-11-26T05:16:40.008Z,11.45
2016-11-26T05:17:40.344Z,11.4
2016-11-26T05:18:40.364Z,11.54
2016-11-26T05:19:40.064Z,11.48
2016-11-26T05:20:40.398Z,11.48
2016-11-26T05:21:40.435Z,11.54
2016-11-26T05:22:40.115Z,11.51
2016-11-26T05:23:40.450Z,11.54
2016-11-26T05:24:40.160Z,11.36
2016-11-26T05:25:40.184Z,11.26
2016-11-26T05:26:40.509Z,11.27
2016-11-26T05:27:40.838Z,11.27
2016-11-26T05:28:40.561Z,11.23
2016-11-26T05:29:40.242Z,11.23
2016-11-26T05:30:40.895Z,11.22
2016-11-26T05:31:40.596Z,11.19
2016-11-26T05:32:40.304Z,11.12
2016-11-26T05:33:40.636Z,11.12
2016-11-26T05:34:40.649Z,11.02
2016-11-26T05:35:40.349Z,11.04
2016-11-26T05:36:40.683Z,11.02
2016-11-26T05:37:40.386Z,11.22
2016-11-26T05:38:40.720Z,11.26
2016-11-26T05:39:40.425Z,11.27
2016-11-26T05:40:40.754Z,11.26
2016-11-26T05:41:40.479Z,11.32
2016-11-26T05:42:40.490Z,11.26
2016-11-26T05:43:40.495Z,11.26
2016-11-26T05:44:40.824Z,11.3
2016-11-26T05:45:40.530Z,11.12
2016-11-26T05:46:40.545Z,11.23
2016-11-26T05:47:40.675Z,11.26
2016-11-26T05:48:40.603Z,11.32
2016-11-26T05:49:40.614Z,11.32
2016-11-26T05:50:40.619Z,11.22
2016-11-26T05:51:40.950Z,10.94
2016-11-26T05:52:40.967Z,10.9
2016-11-26T05:53:40.670Z,10.89
2016-11-26T05:54:40.696Z,10.99
2016-11-26T05:55:41.019Z,11.07
2016-11-26T05:56:41.039Z,11.07
2016-11-26T05:57:40.740Z,11.1
2016-11-26T05:58:41.077Z,11.05
2016-11-26T05:59:40.776Z,10.84
2016-11-26T06:00:41.111Z,10.81
2016-11-26T06:01:40.812Z,10.71
2016-11-26T06:02:41.147Z,10.71
2016-11-26T06:03:41.167Z,10.67
2016-11-26T06:04:41.507Z,10.69
2016-11-26T06:05:41.321Z,10.81
2016-11-26T06:06:41.539Z,10.92
2016-11-26T06:07:41.234Z,10.92
2016-11-26T06:08:40.933Z,10.94
2016-11-26T06:09:41.305Z,10.92
2016-11-26T06:10:40.972Z,10.94
2016-11-26T06:11:41.310Z,10.76
2016-11-26T06:12:41.324Z,10.67
2016-11-26T06:13:41.028Z,10.71
2016-11-26T06:14:41.672Z,10.75
2016-11-26T06:15:41.374Z,10.84
2016-11-26T06:16:41.080Z,10.82
2016-11-26T06:17:41.723Z,10.89
2016-11-26T06:18:41.121Z,10.9
2016-11-26T06:19:41.765Z,11.02
2016-11-26T06:20:41.784Z,11.05
2016-11-26T06:21:41.483Z,10.99
2016-11-26T06:22:41.812Z,11.11
2016-11-26T06:23:41.201Z,10.97
2016-11-26T06:24:41.853Z,10.92
2016-11-26T06:25:41.553Z,10.99
2016-11-26T06:26:41.253Z,11.04
2016-11-26T06:27:41.583Z,10.99
2016-11-26T06:28:41.920Z,10.94
2016-11-26T06:29:41.303Z,11.1
2016-11-26T06:30:41.324Z,10.99
2016-11-26T06:31:41.340Z,11.1
2016-11-26T06:32:41.694Z,10.99
2016-11-26T06:33:41.388Z,11.02
2016-11-26T06:34:41.706Z,10.94
2016-11-26T06:35:41.723Z,10.97
2016-11-26T06:36:41.439Z,11.05
2016-11-26T06:37:41.760Z,11.11
2016-11-26T06:38:41.468Z,11.08
2016-11-26T06:39:41.812Z,11.08
2016-11-26T06:40:41.514Z,11.05
2016-11-26T06:41:42.145Z,10.89
2016-11-26T06:42:41.538Z,10.89
2016-11-26T06:43:41.552Z,10.99
2016-11-26T06:44:41.573Z,10.86
2016-11-26T06:45:42.217Z,10.61
2016-11-26T06:46:41.603Z,10.53
2016-11-26T06:47:42.256Z,10.51
2016-11-26T06:48:41.959Z,10.53
2016-11-26T06:49:41.656Z,10.56
2016-11-26T06:50:41.672Z,10.42
2016-11-26T06:51:41.689Z,10.38
2016-11-26T06:52:41.710Z,10.4
2016-11-26T06:53:42.075Z,10.42
2016-11-26T06:54:42.375Z,10.54
2016-11-26T06:55:41.761Z,10.4
2016-11-26T06:56:41.779Z,10.38
2016-11-26T06:57:42.110Z,10.37
2016-11-26T06:58:42.444Z,10.49
2016-11-26T06:59:42.461Z,10.63
2016-11-26T07:00:42.162Z,10.61
2016-11-26T07:01:42.182Z,10.75
2016-11-26T07:02:42.200Z,10.68
2016-11-26T07:03:42.218Z,10.51
2016-11-26T07:04:42.238Z,10.41
2016-11-26T07:05:42.250Z,10.35
2016-11-26T07:06:42.268Z,10.46
2016-11-26T07:07:41.969Z,10.49
2016-11-26T07:08:41.988Z,10.67
2016-11-26T07:09:42.005Z,10.56
2016-11-26T07:10:42.340Z,10.71
2016-11-26T07:11:42.038Z,10.74
2016-11-26T07:12:42.720Z,10.78
2016-11-26T07:13:42.391Z,10.82
2016-11-26T07:14:42.405Z,10.86
2016-11-26T07:15:42.108Z,10.84
2016-11-26T07:16:42.441Z,10.82
2016-11-26T07:17:42.460Z,10.87
2016-11-26T07:18:42.477Z,10.92
2016-11-26T07:19:42.522Z,10.94
2016-11-26T07:20:42.196Z,10.89
2016-11-26T07:21:42.216Z,10.79
2016-11-26T07:22:42.237Z,10.92
2016-11-26T07:23:42.564Z,10.84
2016-11-26T07:24:42.603Z,10.79
2016-11-26T07:25:42.295Z,10.86
2016-11-26T07:26:42.621Z,10.78
2016-11-26T07:27:42.632Z,10.92
2016-11-26T07:28:42.332Z,10.68
2016-11-26T07:29:42.349Z,10.53
2016-11-26T07:30:42.682Z,10.6
2016-11-26T07:31:42.407Z,10.61
2016-11-26T07:32:42.420Z,10.61
2016-11-26T07:33:43.059Z,10.48
2016-11-26T07:34:42.756Z,10.48
2016-11-26T07:35:43.085Z,10.34
2016-11-26T07:36:42.479Z,10.35
2016-11-26T07:37:42.490Z,10.28
2016-11-26T07:38:42.513Z,10.31
2016-11-26T07:39:42.839Z,10.28
2016-11-26T07:40:42.861Z,10.35
2016-11-26T07:41:42.558Z,10.4
2016-11-26T07:42:42.896Z,10.56
2016-11-26T07:43:42.595Z,10.42
2016-11-26T07:44:42.618Z,10.41
2016-11-26T07:45:42.948Z,10.28
2016-11-26T07:46:42.652Z,10.23
2016-11-26T07:47:43.297Z,10.3
2016-11-26T07:48:42.682Z,10.12
2016-11-26T07:49:43.021Z,10.1
2016-11-26T07:50:42.721Z,10.3
2016-11-26T07:51:43.049Z,10.33
2016-11-26T07:52:43.067Z,10.35
2016-11-26T07:53:43.079Z,10.42
2016-11-26T07:54:43.106Z,10.31
2016-11-26T07:55:42.801Z,10.35
2016-11-26T07:56:43.135Z,10.46
2016-11-26T07:57:42.840Z,10.53
2016-11-26T07:58:42.855Z,10.6
2016-11-26T07:59:42.872Z,10.6
2016-11-26T08:00:42.889Z,10.6
2016-11-26T08:01:43.544Z,10.64
2016-11-26T08:02:43.239Z,10.61
2016-11-26T08:03:43.257Z,10.68
2016-11-26T08:04:42.959Z,10.61
2016-11-26T08:05:43.607Z,10.69
2016-11-26T08:06:43.307Z,10.74
2016-11-26T08:07:43.327Z,10.76
2016-11-26T08:08:43.667Z,10.79
2016-11-26T08:09:43.047Z,10.81
2016-11-26T08:10:43.379Z,10.87
2016-11-26T08:11:43.742Z,10.79
2016-11-26T08:12:43.098Z,10.87
2016-11-26T08:13:43.115Z,10.86
2016-11-26T08:14:43.449Z,10.81
2016-11-26T08:15:43.467Z,10.89
2016-11-26T08:16:43.169Z,10.96
2016-11-26T08:17:43.817Z,10.86
2016-11-26T08:18:43.517Z,10.87
2016-11-26T08:19:43.849Z,10.94
2016-11-26T08:20:43.869Z,10.99
2016-11-26T08:21:43.569Z,10.96
2016-11-26T08:22:43.271Z,10.96
2016-11-26T08:23:43.290Z,10.93
2016-11-26T08:24:43.646Z,10.93
2016-11-26T08:25:43.636Z,10.97
2016-11-26T08:26:43.656Z,11.1
2016-11-26T08:27:43.673Z,10.96
2016-11-26T08:28:43.379Z,10.96
2016-11-26T08:29:43.393Z,10.92
2016-11-26T08:30:43.415Z,10.92
2016-11-26T08:31:43.430Z,10.96
2016-11-26T08:32:43.493Z,10.9
2016-11-26T08:33:43.465Z,10.99
2016-11-26T08:34:44.114Z,10.94
2016-11-26T08:35:43.820Z,10.99
2016-11-26T08:36:43.837Z,11.05
2016-11-26T08:37:44.170Z,11
2016-11-26T08:38:43.553Z,10.97
2016-11-26T08:39:43.571Z,10.96
2016-11-26T08:40:43.624Z,10.93
2016-11-26T08:41:44.240Z,11.04
2016-11-26T08:42:43.941Z,10.97
2016-11-26T08:43:43.960Z,10.96
2016-11-26T08:44:43.971Z,11
2016-11-26T08:45:44.328Z,10.99
2016-11-26T08:46:44.013Z,11.1
2016-11-26T08:47:43.711Z,11.05
2016-11-26T08:48:43.750Z,11.05
2016-11-26T08:49:44.074Z,11.07
2016-11-26T08:50:44.399Z,11.08
2016-11-26T08:51:43.810Z,11
2016-11-26T08:52:43.803Z,11.05
2016-11-26T08:53:44.148Z,11.08
2016-11-26T08:54:43.837Z,11.1
2016-11-26T08:55:44.166Z,11.07
2016-11-26T08:56:44.188Z,11.17
2016-11-26T08:57:44.523Z,11.14
2016-11-26T08:58:44.534Z,11.17
2016-11-26T08:59:44.251Z,11.04
2016-11-26T09:00:43.947Z,11.04
2016-11-26T09:01:44.288Z,11.08
2016-11-26T09:02:44.606Z,11.15
2016-11-26T09:03:44.629Z,11.1
2016-11-26T09:04:44.022Z,11.1
2016-11-26T09:05:44.031Z,11.12
2016-11-26T09:06:44.046Z,11.17
2016-11-26T09:07:44.697Z,11.25
2016-11-26T09:08:44.217Z,11.19
2016-11-26T09:09:44.425Z,11.23
2016-11-26T09:10:44.434Z,11.18
2016-11-26T09:11:44.459Z,11.27
2016-11-26T09:12:44.152Z,11.23
2016-11-26T09:13:44.489Z,11.29
2016-11-26T09:14:44.232Z,11.25
2016-11-26T09:15:44.540Z,11.23
2016-11-26T09:16:44.239Z,11.14
2016-11-26T09:17:44.881Z,11.1
2016-11-26T09:18:44.891Z,11.07
2016-11-26T09:19:44.596Z,11.15
2016-11-26T09:20:44.614Z,11.1
2016-11-26T09:21:44.319Z,11.1
2016-11-26T09:22:44.651Z,11.02
2016-11-26T09:23:44.668Z,11.05
2016-11-26T09:24:44.365Z,11.07
2016-11-26T09:25:44.702Z,11.1
2016-11-26T09:26:44.401Z,11.14
2016-11-26T09:27:45.066Z,11.12
2016-11-26T09:28:44.437Z,11.14
2016-11-26T09:29:44.775Z,11.1
2016-11-26T09:30:44.790Z,11.23
2016-11-26T09:31:44.498Z,11.14
2016-11-26T09:32:44.507Z,11.26
2016-11-26T09:33:44.527Z,11.29
2016-11-26T09:34:45.178Z,11.23
2016-11-26T09:35:44.570Z,11.19
2016-11-26T09:36:44.895Z,11.17
2016-11-26T09:37:44.915Z,11.17
2016-11-26T09:38:45.243Z,11.12
2016-11-26T09:39:44.953Z,11.1
2016-11-26T09:40:44.965Z,11.11
2016-11-26T09:41:44.684Z,11.18
2016-11-26T09:42:45.001Z,11.22
2016-11-26T09:43:45.030Z,11.23
2016-11-26T09:44:45.039Z,11.25
2016-11-26T09:45:44.750Z,11.25
2016-11-26T09:46:45.083Z,11.35
2016-11-26T09:47:45.446Z,11.3
2016-11-26T09:48:45.110Z,11.32
2016-11-26T09:49:45.139Z,11.4
2016-11-26T09:50:44.828Z,11.32
2016-11-26T09:51:45.166Z,11.33
2016-11-26T09:52:45.517Z,11.22
2016-11-26T09:53:44.887Z,11.27
2016-11-26T09:54:45.219Z,11.32
2016-11-26T09:55:44.936Z,11.27
2016-11-26T09:56:45.266Z,11.3
2016-11-26T09:57:45.277Z,11.27
2016-11-26T09:58:45.286Z,11.25
2016-11-26T09:59:45.547Z,11.35
2016-11-26T10:00:45.329Z,11.37
2016-11-26T10:01:45.659Z,11.32
2016-11-26T10:02:45.671Z,11.35
2016-11-26T10:04:00.288Z,11.35
2016-11-26T10:04:45.085Z,11.35
2016-11-26T10:05:45.105Z,11.36
2016-11-26T10:06:45.744Z,11.37
2016-11-26T10:07:45.464Z,11.41
2016-11-26T10:08:45.150Z,11.33
2016-11-26T10:09:45.487Z,11.4
2016-11-26T10:10:45.506Z,11.32
2016-11-26T10:11:45.232Z,11.22
2016-11-26T10:12:45.258Z,11.22
2016-11-26T10:13:45.244Z,11.4
2016-11-26T10:14:45.576Z,11.37
2016-11-26T10:15:45.615Z,11.3
2016-11-26T10:16:45.924Z,11.19
2016-11-26T10:17:45.320Z,11.3
2016-11-26T10:18:45.960Z,11.35
2016-11-26T10:19:45.685Z,11.43
2016-11-26T10:20:45.994Z,11.35
2016-11-26T10:21:45.392Z,11.44
2016-11-26T10:22:45.738Z,11.4
2016-11-26T10:23:45.433Z,11.41
2016-11-26T10:24:45.444Z,11.54
2016-11-26T10:25:46.090Z,11.47
2016-11-26T10:26:45.787Z,11.48
2016-11-26T10:27:45.495Z,11.54
2016-11-26T10:28:45.826Z,11.59
2016-11-26T10:29:45.557Z,11.54
2016-11-26T10:30:46.179Z,11.57
2016-11-26T10:31:45.562Z,11.54
2016-11-26T10:32:45.929Z,11.6
2016-11-26T10:33:45.614Z,11.57
2016-11-26T10:34:45.937Z,11.54
2016-11-26T10:35:45.953Z,11.51
2016-11-26T10:36:45.973Z,11.5
2016-11-26T10:37:46.304Z,11.44
2016-11-26T10:38:46.006Z,11.6
2016-11-26T10:39:46.025Z,11.52
2016-11-26T10:40:46.045Z,11.47
2016-11-26T10:41:46.067Z,11.52
2016-11-26T10:42:46.088Z,11.45
2016-11-26T10:43:46.105Z,11.36
2016-11-26T10:44:45.799Z,11.44
2016-11-26T10:45:45.819Z,11.41
2016-11-26T10:46:46.151Z,11.36
2016-11-26T10:47:46.491Z,11.33
2016-11-26T10:48:46.185Z,11.45
2016-11-26T10:49:45.890Z,11.54
2016-11-26T10:50:45.906Z,11.35
2016-11-26T10:51:45.933Z,11.45
2016-11-26T10:52:46.572Z,11.57
2016-11-26T10:53:45.963Z,11.59
2016-11-26T10:54:46.296Z,11.57
2016-11-26T10:55:46.317Z,11.51
2016-11-26T10:56:46.019Z,11.54
2016-11-26T10:57:46.041Z,11.55
2016-11-26T10:58:46.373Z,11.48
2016-11-26T10:59:46.394Z,11.59
2016-11-26T11:00:46.410Z,11.57
2016-11-26T11:01:46.442Z,11.6
2016-11-26T11:02:46.442Z,11.55
2016-11-26T11:03:46.529Z,11.6
2016-11-26T11:04:46.487Z,11.52
2016-11-26T11:05:46.814Z,11.55
2016-11-26T11:06:46.594Z,11.65
2016-11-26T11:07:46.867Z,11.48
2016-11-26T11:08:46.870Z,11.6
2016-11-26T11:09:46.264Z,11.62
2016-11-26T11:10:46.587Z,11.62
2016-11-26T11:11:46.607Z,11.65
2016-11-26T11:12:46.623Z,11.62
2016-11-26T11:13:46.647Z,11.57
2016-11-26T11:14:46.672Z,11.47
2016-11-26T11:15:46.997Z,11.59
2016-11-26T11:16:46.690Z,11.6
2016-11-26T11:17:46.395Z,11.47
2016-11-26T11:18:47.056Z,11.43
2016-11-26T11:19:46.770Z,11.47
2016-11-26T11:20:46.450Z,11.59
2016-11-26T11:21:46.497Z,11.48
2016-11-26T11:22:46.499Z,11.44
2016-11-26T11:23:46.824Z,11.52
2016-11-26T11:24:46.526Z,11.59
2016-11-26T11:25:46.868Z,11.44
2016-11-26T11:26:46.879Z,11.51
2016-11-26T11:27:47.215Z,11.57
2016-11-26T11:28:46.907Z,11.5
2016-11-26T11:29:46.933Z,11.57
2016-11-26T11:30:46.949Z,11.48
2016-11-26T11:31:46.659Z,11.44
2016-11-26T11:32:46.986Z,11.55
2016-11-26T11:33:46.710Z,11.6
2016-11-26T11:34:47.053Z,11.59
2016-11-26T11:35:46.924Z,11.59
2016-11-26T11:36:47.377Z,11.57
2016-11-26T11:37:47.404Z,11.59
2016-11-26T11:38:47.098Z,11.59
2016-11-26T11:39:46.801Z,11.66
2016-11-26T11:40:47.129Z,11.62
2016-11-26T11:41:47.462Z,11.48
2016-11-26T11:42:47.166Z,11.52
2016-11-26T11:43:46.873Z,11.62
2016-11-26T11:44:46.899Z,11.62
2016-11-26T11:45:47.250Z,11.62
2016-11-26T11:46:47.235Z,11.7
2016-11-26T11:47:47.575Z,11.69
2016-11-26T11:48:47.274Z,11.63
2016-11-26T11:49:46.975Z,11.75
2016-11-26T11:50:46.993Z,11.66
2016-11-26T11:51:47.331Z,11.7
2016-11-26T11:52:47.659Z,11.81
2016-11-26T11:53:47.385Z,11.83
2016-11-26T11:54:47.694Z,11.78
2016-11-26T11:55:47.399Z,11.81
2016-11-26T11:56:47.418Z,11.86
2016-11-26T11:57:47.432Z,11.87
2016-11-26T11:58:47.451Z,11.88
2016-11-26T11:59:47.468Z,11.83
2016-11-26T12:00:47.191Z,11.91
2016-11-26T12:01:47.502Z,11.87
2016-11-26T12:02:47.559Z,11.86
2016-11-26T12:03:47.226Z,11.84
2016-11-26T12:04:47.242Z,11.86
2016-11-26T12:05:47.579Z,11.77
2016-11-26T12:06:47.308Z,11.8
2016-11-26T12:07:47.925Z,11.88
2016-11-26T12:08:47.628Z,11.87
2016-11-26T12:09:47.334Z,11.87
2016-11-26T12:10:47.352Z,11.9
2016-11-26T12:11:47.369Z,11.86
2016-11-26T12:12:47.703Z,11.88
2016-11-26T12:13:47.720Z,11.84
2016-11-26T12:14:47.738Z,11.84
2016-11-26T12:15:47.440Z,11.84
2016-11-26T12:16:47.776Z,11.83
2016-11-26T12:17:47.792Z,11.73
2016-11-26T12:18:47.810Z,11.63
2016-11-26T12:19:47.829Z,11.6
2016-11-26T12:20:47.846Z,11.75
2016-11-26T12:21:47.552Z,11.78
2016-11-26T12:22:47.883Z,11.84
2016-11-26T12:23:47.900Z,11.88
2016-11-26T12:24:47.919Z,11.86
2016-11-26T12:25:47.938Z,11.86
2016-11-26T12:26:47.957Z,11.81
2016-11-26T12:27:47.968Z,11.86
2016-11-26T12:28:47.989Z,11.84
2016-11-26T12:29:48.327Z,11.91
2016-11-26T12:30:48.337Z,11.86
2016-11-26T12:31:47.729Z,11.87
2016-11-26T12:32:47.746Z,11.9
2016-11-26T12:33:48.084Z,11.95
2016-11-26T12:34:48.100Z,11.87
2016-11-26T12:35:48.114Z,11.88
2016-11-26T12:36:48.138Z,11.95
2016-11-26T12:37:48.148Z,11.88
2016-11-26T12:38:48.169Z,11.86
2016-11-26T12:39:48.530Z,11.83
2016-11-26T12:40:48.217Z,11.86
2016-11-26T12:41:47.909Z,11.88
2016-11-26T12:42:48.246Z,11.88
2016-11-26T12:43:48.270Z,11.83
2016-11-26T12:44:48.281Z,11.88
2016-11-26T12:45:48.613Z,11.87
2016-11-26T12:46:48.313Z,11.86
2016-11-26T12:47:48.654Z,11.81
2016-11-26T12:48:48.032Z,11.77
2016-11-26T12:49:48.687Z,11.77
2016-11-26T12:50:48.388Z,11.83
2016-11-26T12:51:48.408Z,11.8
2016-11-26T12:52:48.421Z,11.88
2016-11-26T12:53:48.449Z,11.87
2016-11-26T12:54:48.463Z,11.86
2016-11-26T12:55:48.814Z,11.84
2016-11-26T12:56:48.182Z,11.84
2016-11-26T12:57:48.196Z,12.02